Friday, November 28, 2014
03:03 UTC
  |  Log In   |  Register Free
Airport Search:

Tyler Pounds Regional Airport
(KTYR)

FAA data valid effective November 13, 2014 - January 08, 2015 (unless otherwise noted).

 
 
 
 
 
 
 
 
 
 
 
 
 
 

Current Aviation Weather for Tyler Pounds Regional Airport (KTYR)

The most recent METAR observation for KTYR was updated at: 0232
METAR Summary (Translated METAR)
KTYR
280153Z 12005KT 10SM CLR 08/M03 A3041 RMK AO2 SLP297 T00831028
KJDD
280155Z AUTO 00000KT 10SM CLR 05/M01 A3041 RMK AO2
(23.8 nm NW from KTYR)
KF44
280155Z AUTO 00000KT 10SM CLR 05/00 A3040 RMK AO2
(24.5 nm SW from KTYR)
TAF Summary (Translated TAF)
KTYR
271741Z 2718/2818 04006KT P6SM SKC FM280000 09003KT P6SM SKC FM280800 17006KT P6SM SKC FM281400 17008KT P6SM SKC
  Airport Weather Conditions for KTYR

 Current Weather at TYR
47° F
Fair
Southeast winds at 5.8 mph
TYR NOAA Radar

Pressure: 30.41 in
Humidity: 46%
Wind: Southeast at 5.8 MPH (5 KT)
Dew Point: 27.0°F
Visibility: 10.00 mi


Airport Weather Forecast for KTYR

Translated METAR and TAF for KTYR
Translated METAR for KTYR (0258 UTC 28 November 2014)
found at http://aviationweather.gov/adds/metars/
 
METAR text: KTYR 280253Z 14006KT 10SM CLR 07/M02 A3040 RMK AO2 SLP295 T00671017 58002
Conditions at: KTYR (TYLER , TX, US) observed 0253 UTC 28 November 2014
Temperature: 6.7°C (44°F)
Dewpoint: -1.7°C (29°F) [RH = 55%]
Pressure (altimeter): 30.40 inches Hg (1029.5 mb)
[Sea-level pressure: 1029.5 mb]
Winds: from the SE (140 degrees) at 7 MPH (6 knots; 3.1 m/s)
Visibility: 10 or more miles (16+ km)
Ceiling: at least 12,000 feet AGL
Clouds: sky clear below 12,000 feet AGL
Weather: no significant weather observed at this time
Translated TAF for KTYR
Forecast for: KTYR (TYLER , TX, US)
TAF Text: KTYR 272325Z 2800/2824 11004KT P6SM SKC
Forecast period: 0000 to 0600 UTC 28 November 2014
Forecast type: FROM: standard forecast or significant change
Winds: from the ESE (110 degrees) at 5 MPH (4 knots; 2.1 m/s)
Visibility: 6 or more miles (10+ km)
Clouds: clear skies
Weather: no significant weather forecast for this period
TAF Text: FM280600 14006KT P6SM FEW250
Forecast period: 0600 to 1500 UTC 28 November 2014
Forecast type: FROM: standard forecast or significant change
Winds: from the SE (140 degrees) at 7 MPH (6 knots; 3.1 m/s)
Visibility: 6 or more miles (10+ km)
Clouds: few clouds at 25000 feet AGL
Weather: no significant weather forecast for this period
TAF Text: FM281500 16010G16KT P6SM SCT250
Forecast period: 1500 to 1800 UTC 28 November 2014
Forecast type: FROM: standard forecast or significant change
Winds: from the SSE (160 degrees) at 12 MPH (10 knots; 5.2 m/s)
gusting to 18 MPH (16 knots; 8.3 m/s)
Visibility: 6 or more miles (10+ km)
Clouds: scattered clouds at 25000 feet AGL
Weather: no significant weather forecast for this period
TAF Text: FM281800 19012G18KT P6SM SCT250
Forecast period: 1800 UTC 28 November 2014 to 0000 UTC 29 November 2014
Forecast type: FROM: standard forecast or significant change
Winds: from the S (190 degrees) at 14 MPH (12 knots; 6.2 m/s)
gusting to 21 MPH (18 knots; 9.4 m/s)
Visibility: 6 or more miles (10+ km)
Clouds: scattered clouds at 25000 feet AGL
Weather: no significant weather forecast for this period

Find All Airport Services Find A Hotel Find A Rental Car Find A Golf Course Find A Restaurant $100 Hamburger



FBO's on the Field
FBO Company Facility Photos Services Transportation Aviation Fuel Prices: Prices include tax
Catering Weather Repair Courtesy Rental Type 100LL JetA JetA+ MOGAS 8087
 
Jet Center of Tyler

Currently rated 5 by 1 person
FS:Phillips 66
Last Updated: Nov-18
Login to update fuel prices
SS:
Contact Jet Center of TylerMore FBO Information
 
Johnson Aviation, Inc

Currently rated 4.1 by 2 people
FS:Avfuel
Last Updated: Nov-18
Login to update fuel prices
SS:
Contact Johnson Aviation, IncMore FBO Information
 
Add another FBO Facility Photos Catering Weather Repair Courtesy Rental Type 100LL JetA JetA+ MOGAS 8087
Services Transportation Aviation Fuel Prices: Prices include tax


model-print
model-print
model-print
model-print